createdAt,value
2022-12-17T00:03:05.234Z,67.50
2022-12-17T00:06:00.633Z,73.05
2022-12-17T00:08:52.018Z,78.45
2022-12-17T00:11:56.102Z,78.50
2022-12-17T00:14:43.937Z,71.63
2022-12-17T00:17:32.225Z,80.53
2022-12-17T00:20:53.803Z,79.55
2022-12-17T00:23:57.511Z,76.63
2022-12-17T00:26:53.077Z,78.50
2022-12-17T00:29:51.294Z,76.28
2022-12-17T00:32:46.764Z,69.50
2022-12-17T00:35:44.821Z,70.35
2022-12-17T00:38:34.578Z,72.72
2022-12-17T00:41:38.625Z,57.15
2022-12-17T00:44:30.782Z,55.63
2022-12-17T00:47:34.983Z,57.72
2022-12-17T00:50:30.477Z,60.88
2022-12-17T00:53:30.806Z,62.53
2022-12-17T00:56:28.406Z,58.85
2022-12-17T00:59:21.184Z,68.32
2022-12-17T01:02:09.422Z,60.75
2022-12-17T01:07:47.972Z,59.55
2022-12-17T01:10:38.537Z,52.83
2022-12-17T01:13:31.127Z,48.53
2022-12-17T01:16:24.047Z,39.10
2022-12-17T01:22:22.066Z,34.70
2022-12-17T01:28:54.611Z,29.02
2022-12-17T01:31:48.228Z,28.45
2022-12-17T01:34:48.163Z,27.17
2022-12-17T01:37:34.835Z,32.13
2022-12-17T01:47:20.347Z,32.10
2022-12-17T01:50:17.413Z,43.15
2022-12-17T01:53:08.602Z,36.70
2022-12-17T01:55:58.000Z,33.97
2022-12-17T01:59:02.672Z,39.22
2022-12-17T02:01:50.122Z,43.35
2022-12-17T02:04:57.049Z,39.65
2022-12-17T02:08:08.390Z,36.67
2022-12-17T02:11:13.246Z,44.25
2022-12-17T02:14:25.701Z,47.88
2022-12-17T02:17:30.509Z,39.42
2022-12-17T02:20:37.327Z,41.83
2022-12-17T02:23:40.652Z,42.95
2022-12-17T02:26:38.784Z,43.05
2022-12-17T02:29:28.745Z,44.65
2022-12-17T02:32:24.191Z,45.67
2022-12-17T02:35:14.280Z,44.85
2022-12-17T02:38:08.974Z,45.55
2022-12-17T02:41:00.876Z,52.47
2022-12-17T02:43:54.212Z,36.67
2022-12-17T02:46:47.400Z,50.88
2022-12-17T02:49:40.137Z,53.20
2022-12-17T02:52:35.195Z,45.35
2022-12-17T02:55:26.847Z,54.47
2022-12-17T02:58:26.278Z,58.17
2022-12-17T03:01:26.700Z,54.92
2022-12-17T03:04:19.208Z,55.00
2022-12-17T03:07:10.874Z,51.70
2022-12-17T03:10:17.107Z,55.17
2022-12-17T03:13:15.747Z,52.58
2022-12-17T03:16:04.261Z,54.08
2022-12-17T03:19:05.010Z,51.85
2022-12-17T03:22:09.635Z,61.35
2022-12-17T03:25:02.310Z,55.70
2022-12-17T03:27:57.256Z,51.47
2022-12-17T03:30:52.648Z,54.72
2022-12-17T03:33:40.430Z,49.78
2022-12-17T03:36:30.652Z,47.92
2022-12-17T03:39:24.274Z,49.05
2022-12-17T03:42:19.658Z,48.03
2022-12-17T03:45:19.808Z,44.15
2022-12-17T03:48:09.467Z,46.67
2022-12-17T03:51:00.265Z,45.70
2022-12-17T03:53:47.823Z,45.10
2022-12-17T03:56:37.583Z,44.42
2022-12-17T03:59:37.364Z,39.10
2022-12-17T04:02:30.435Z,44.70
2022-12-17T04:05:21.820Z,39.10
2022-12-17T04:08:15.189Z,38.00
2022-12-17T04:14:26.918Z,41.60
2022-12-17T04:17:17.813Z,38.92
2022-12-17T04:26:03.904Z,41.67
2022-12-17T04:28:58.882Z,35.92
2022-12-17T04:32:02.086Z,36.30
2022-12-17T04:37:58.367Z,37.20
2022-12-17T04:40:54.289Z,36.42
2022-12-17T04:43:41.910Z,40.00
2022-12-17T04:46:39.501Z,34.38
2022-12-17T04:49:49.812Z,30.98
2022-12-17T04:52:40.755Z,27.88
2022-12-17T04:55:34.618Z,28.90
2022-12-17T04:58:37.256Z,27.17
2022-12-17T05:04:39.091Z,25.95
2022-12-17T05:07:29.821Z,27.55
2022-12-17T05:10:17.716Z,24.90
2022-12-17T05:13:07.037Z,25.90
2022-12-17T05:16:22.931Z,25.70
2022-12-17T05:19:12.372Z,25.15
2022-12-17T05:22:05.451Z,24.35
2022-12-17T05:25:16.525Z,27.00
2022-12-17T05:28:16.832Z,22.27
2022-12-17T05:31:13.900Z,25.50
2022-12-17T05:34:07.871Z,22.85
2022-12-17T05:37:05.542Z,24.85
2022-12-17T05:43:36.897Z,23.15
2022-12-17T05:46:29.798Z,22.35
2022-12-17T05:49:28.858Z,22.55
2022-12-17T05:52:32.953Z,22.73
2022-12-17T06:01:44.096Z,22.88
2022-12-17T06:07:53.662Z,25.13
2022-12-17T06:10:55.009Z,26.67
2022-12-17T06:13:44.916Z,27.00
2022-12-17T06:24:30.707Z,28.33
2022-12-17T06:27:15.929Z,37.50
2022-12-17T06:30:01.418Z,32.45
2022-12-17T06:32:48.586Z,31.92
2022-12-17T06:35:34.073Z,31.60
2022-12-17T06:38:20.136Z,33.97
2022-12-17T06:41:05.728Z,32.95
2022-12-17T06:43:51.068Z,30.55
2022-12-17T06:46:36.615Z,34.78
2022-12-17T06:49:23.717Z,31.63
2022-12-17T06:52:11.213Z,33.40
2022-12-17T06:54:56.562Z,32.65
2022-12-17T06:57:47.487Z,34.63
2022-12-17T07:00:35.864Z,29.23
2022-12-17T07:03:23.290Z,28.35
2022-12-17T07:06:10.575Z,29.38
2022-12-17T07:08:56.153Z,29.88
2022-12-17T07:11:42.576Z,28.83
2022-12-17T07:14:27.755Z,28.23
2022-12-17T07:17:13.457Z,30.70
2022-12-17T07:19:58.612Z,27.80
2022-12-17T07:22:45.165Z,27.95
2022-12-17T07:25:30.736Z,27.15
2022-12-17T07:28:16.204Z,27.02
2022-12-17T07:31:01.533Z,28.38
2022-12-17T07:33:46.896Z,28.23
2022-12-17T07:36:32.122Z,32.10
2022-12-17T07:39:18.852Z,30.17
2022-12-17T07:42:04.026Z,29.85
2022-12-17T07:44:49.222Z,27.23
2022-12-17T07:47:34.854Z,26.05
2022-12-17T07:50:20.245Z,26.88
2022-12-17T07:53:05.796Z,26.05
2022-12-17T07:55:52.467Z,27.50
2022-12-17T07:58:37.704Z,30.00
2022-12-17T08:01:23.517Z,32.05
2022-12-17T08:04:16.908Z,33.95
2022-12-17T08:07:06.951Z,38.55
2022-12-17T08:09:59.653Z,29.48
2022-12-17T08:13:01.519Z,29.83
2022-12-17T08:15:48.193Z,32.88
2022-12-17T08:18:42.987Z,36.38
2022-12-17T08:21:28.609Z,36.03
2022-12-17T08:24:13.944Z,36.15
2022-12-17T08:26:59.312Z,35.88
2022-12-17T08:29:46.670Z,38.53
2022-12-17T08:32:32.270Z,34.78
2022-12-17T08:35:18.364Z,38.00
2022-12-17T08:38:03.928Z,41.45
2022-12-17T08:40:49.442Z,46.20
2022-12-17T08:43:35.366Z,47.20
2022-12-17T08:46:22.675Z,45.25
2022-12-17T08:49:08.191Z,48.05
2022-12-17T08:51:53.382Z,50.42
2022-12-17T08:54:38.463Z,51.58
2022-12-17T08:57:31.499Z,48.33
2022-12-17T09:00:29.167Z,46.58
2022-12-17T09:03:20.911Z,51.75
2022-12-17T09:06:06.896Z,56.50
2022-12-17T09:08:52.363Z,69.38
2022-12-17T09:11:37.957Z,60.42
2022-12-17T09:14:23.067Z,55.58
2022-12-17T09:17:08.215Z,63.47
2022-12-17T09:19:55.247Z,57.75
2022-12-17T09:22:40.700Z,67.43
2022-12-17T09:25:27.547Z,66.32
2022-12-17T09:28:12.885Z,56.80
2022-12-17T09:30:59.710Z,63.00
2022-12-17T09:33:47.176Z,57.00
2022-12-17T09:36:38.260Z,54.28
2022-12-17T09:39:23.922Z,58.50
2022-12-17T09:42:18.132Z,66.00
2022-12-17T09:45:09.530Z,76.57
2022-12-17T09:48:10.134Z,72.55
2022-12-17T09:50:58.090Z,72.40
2022-12-17T09:53:54.163Z,64.28
2022-12-17T09:56:45.731Z,56.42
2022-12-17T09:59:39.047Z,60.15
2022-12-17T10:02:32.659Z,58.63
2022-12-17T10:05:20.738Z,65.78
2022-12-17T10:08:07.023Z,59.47
2022-12-17T10:10:59.333Z,62.65
2022-12-17T10:13:44.839Z,57.33
2022-12-17T10:16:44.285Z,55.40
2022-12-17T10:19:34.398Z,57.92
2022-12-17T10:22:30.859Z,51.80
2022-12-17T10:25:20.882Z,55.83
2022-12-17T10:30:55.029Z,52.47
2022-12-17T10:33:41.145Z,55.58
2022-12-17T10:36:40.690Z,63.88
2022-12-17T10:39:34.589Z,49.67
2022-12-17T10:42:21.060Z,46.42
2022-12-17T10:45:08.009Z,54.20
2022-12-17T10:48:05.049Z,62.45
2022-12-17T10:50:51.635Z,57.53
2022-12-17T10:53:39.772Z,42.03
2022-12-17T10:56:26.187Z,42.88
2022-12-17T10:59:13.293Z,39.60
2022-12-17T11:02:03.851Z,39.50
2022-12-17T11:04:55.493Z,36.90
2022-12-17T11:07:46.043Z,39.17
2022-12-17T11:10:35.235Z,44.33
2022-12-17T11:13:24.305Z,44.37
2022-12-17T11:16:17.382Z,44.58
2022-12-17T11:19:10.888Z,39.88
2022-12-17T11:22:02.115Z,39.38
2022-12-17T11:24:56.633Z,45.97
2022-12-17T11:27:46.115Z,42.60
2022-12-17T11:30:32.759Z,45.22
2022-12-17T11:33:30.687Z,34.67
2022-12-17T11:36:36.815Z,35.30
2022-12-17T11:39:30.777Z,37.78
2022-12-17T11:42:22.984Z,36.22
2022-12-17T11:45:22.523Z,31.90
2022-12-17T11:48:17.482Z,34.17
2022-12-17T11:51:07.925Z,33.67
2022-12-17T11:54:13.180Z,32.45
2022-12-17T11:57:03.899Z,32.67
2022-12-17T11:59:55.070Z,32.83
2022-12-17T12:02:57.041Z,60.17
2022-12-17T12:05:56.277Z,186.02
2022-12-17T12:08:46.026Z,38.28
2022-12-17T12:11:44.106Z,33.08
2022-12-17T12:14:41.087Z,27.85
2022-12-17T12:17:37.800Z,31.15
2022-12-17T12:20:34.912Z,37.25
2022-12-17T12:23:27.660Z,33.13
2022-12-17T12:26:25.715Z,31.63
2022-12-17T12:29:18.215Z,30.80
2022-12-17T12:32:13.721Z,28.33
2022-12-17T12:35:01.626Z,26.30
2022-12-17T12:37:48.676Z,28.77
2022-12-17T12:40:41.921Z,27.23
2022-12-17T12:43:36.764Z,30.27
2022-12-17T12:46:28.479Z,31.90
2022-12-17T12:49:19.288Z,30.17
2022-12-17T12:52:05.983Z,31.83
2022-12-17T12:55:10.325Z,28.60
2022-12-17T12:57:57.753Z,30.95
2022-12-17T13:00:48.149Z,31.58
2022-12-17T13:03:48.389Z,29.33
2022-12-17T13:09:20.839Z,28.80
2022-12-17T13:11:55.227Z,33.95
2022-12-17T13:14:27.578Z,28.17
2022-12-17T13:17:00.238Z,29.75
2022-12-17T13:19:39.189Z,28.13
2022-12-17T13:22:33.550Z,32.35
2022-12-17T13:25:18.315Z,31.05
2022-12-17T13:27:46.902Z,31.23
2022-12-17T13:30:39.252Z,32.63
2022-12-17T13:33:26.145Z,28.33
2022-12-17T13:36:09.288Z,30.83
2022-12-17T13:38:52.386Z,29.90
2022-12-17T13:41:22.129Z,32.63
2022-12-17T13:43:52.383Z,32.13
2022-12-17T13:46:23.190Z,35.92
2022-12-17T13:48:58.984Z,25.30
2022-12-17T13:51:30.941Z,26.27
2022-12-17T13:54:03.909Z,25.60
2022-12-17T13:56:34.928Z,25.95
2022-12-17T13:59:09.262Z,23.27
2022-12-17T14:01:46.404Z,25.38
2022-12-17T14:04:22.417Z,29.77
2022-12-17T14:06:53.292Z,30.42
2022-12-17T14:09:23.336Z,33.38
2022-12-17T14:12:09.710Z,35.90
2022-12-17T14:14:39.327Z,31.45
2022-12-17T14:17:08.357Z,27.75
2022-12-17T14:19:38.526Z,30.75
2022-12-17T14:22:08.556Z,26.83
2022-12-17T14:24:36.912Z,30.15
2022-12-17T14:27:05.177Z,31.92
2022-12-17T14:29:33.400Z,30.23
2022-12-17T14:32:04.031Z,27.42
2022-12-17T14:34:42.291Z,23.95
2022-12-17T14:37:20.833Z,24.55
2022-12-17T14:39:49.583Z,24.98
2022-12-17T14:42:29.280Z,26.45
2022-12-17T14:45:00.521Z,26.90
2022-12-17T14:47:30.385Z,26.40
2022-12-17T14:50:02.587Z,26.52
2022-12-17T14:52:42.206Z,26.35
2022-12-17T14:55:35.145Z,27.75
2022-12-17T14:58:24.458Z,25.80
2022-12-17T15:00:56.516Z,25.10
2022-12-17T15:03:32.213Z,24.95
2022-12-17T15:06:03.258Z,27.38
2022-12-17T15:08:39.880Z,27.83
2022-12-17T15:11:08.918Z,27.08
2022-12-17T15:13:36.966Z,25.65
2022-12-17T15:16:05.481Z,29.25
2022-12-17T15:18:34.233Z,28.30
2022-12-17T15:21:03.611Z,34.50
2022-12-17T15:23:33.637Z,42.90
2022-12-17T15:26:01.697Z,37.53
2022-12-17T15:28:30.067Z,42.53
2022-12-17T15:30:58.348Z,33.45
2022-12-17T15:33:26.536Z,30.83
2022-12-17T15:35:54.741Z,29.77
2022-12-17T15:38:42.752Z,32.67
2022-12-17T15:41:27.257Z,33.63
2022-12-17T15:43:55.136Z,30.58
2022-12-17T15:46:23.354Z,30.58
2022-12-17T15:48:51.404Z,28.17
2022-12-17T15:51:21.040Z,36.60
2022-12-17T15:53:50.485Z,34.25
2022-12-17T15:56:22.323Z,32.08
2022-12-17T15:58:50.919Z,30.85
2022-12-17T16:01:19.679Z,33.45
2022-12-17T16:03:47.888Z,30.45
2022-12-17T16:06:17.150Z,32.20
2022-12-17T16:08:45.314Z,34.95
2022-12-17T16:11:16.023Z,43.75
2022-12-17T16:13:44.046Z,69.30
2022-12-17T16:16:12.182Z,49.83
2022-12-17T16:18:40.507Z,58.33
2022-12-17T16:21:09.899Z,61.88
2022-12-17T16:23:37.959Z,81.90
2022-12-17T16:26:07.662Z,63.65
2022-12-17T16:28:37.685Z,61.42
2022-12-17T16:31:07.824Z,60.42
2022-12-17T16:36:05.268Z,36.08
2022-12-17T16:38:33.852Z,37.58
2022-12-17T16:41:03.845Z,44.15
2022-12-17T16:43:35.109Z,41.50
2022-12-17T16:46:09.101Z,39.22
2022-12-17T16:48:40.861Z,38.17
2022-12-17T16:51:19.873Z,43.30
2022-12-17T16:53:52.251Z,43.75
2022-12-17T16:56:21.767Z,49.15
2022-12-17T16:58:50.122Z,50.88
2022-12-17T17:01:21.470Z,53.22
2022-12-17T17:03:50.057Z,53.33
2022-12-17T17:06:19.302Z,48.63
2022-12-17T17:08:47.968Z,48.37
2022-12-17T17:11:19.303Z,66.05
2022-12-17T17:13:47.199Z,47.83
2022-12-17T17:16:15.121Z,37.55
2022-12-17T17:18:44.442Z,37.20
2022-12-17T17:21:18.243Z,36.05
2022-12-17T17:23:46.221Z,32.03
2022-12-17T17:26:16.069Z,30.00
2022-12-17T17:28:45.692Z,31.15
2022-12-17T17:31:15.905Z,35.25
2022-12-17T17:33:47.826Z,33.13
2022-12-17T17:36:18.358Z,31.00
2022-12-17T17:38:47.302Z,33.45
2022-12-17T17:41:17.581Z,28.65
2022-12-17T17:43:45.998Z,36.63
2022-12-17T17:46:15.693Z,26.55
2022-12-17T17:48:46.607Z,26.58
2022-12-17T17:51:19.020Z,34.58
2022-12-17T17:53:47.378Z,35.20
2022-12-17T17:56:17.600Z,35.15
2022-12-17T17:58:46.819Z,33.00
2022-12-17T18:01:17.522Z,36.55
2022-12-17T18:03:47.091Z,41.00
2022-12-17T18:06:15.383Z,28.73
2022-12-17T18:08:43.779Z,38.50
2022-12-17T18:11:14.956Z,33.28
2022-12-17T18:13:56.761Z,31.50
2022-12-17T18:18:58.950Z,36.70
2022-12-17T18:21:28.588Z,37.85
2022-12-17T18:23:59.619Z,38.95
2022-12-17T18:26:28.833Z,39.85
2022-12-17T18:28:58.492Z,49.17
2022-12-17T18:31:27.868Z,41.47
2022-12-17T18:33:58.915Z,41.78
2022-12-17T18:36:28.647Z,38.40
2022-12-17T18:38:57.512Z,43.65
2022-12-17T18:41:44.009Z,44.78
2022-12-17T18:44:12.897Z,37.20
2022-12-17T18:46:41.191Z,28.35
2022-12-17T18:49:12.846Z,28.85
2022-12-17T18:51:42.894Z,33.58
2022-12-17T18:57:00.403Z,50.25
2022-12-17T18:59:31.622Z,35.10
2022-12-17T19:02:00.319Z,35.92
2022-12-17T19:04:30.154Z,33.45
2022-12-17T19:06:57.979Z,30.85
2022-12-17T19:09:27.868Z,28.25
2022-12-17T19:11:57.130Z,29.73
2022-12-17T19:14:25.810Z,59.03
2022-12-17T19:16:55.251Z,29.70
2022-12-17T19:19:23.806Z,30.05
2022-12-17T19:21:54.968Z,40.92
2022-12-17T19:24:24.233Z,40.58
2022-12-17T19:26:52.828Z,33.97
2022-12-17T19:29:21.714Z,34.67
2022-12-17T19:31:50.287Z,42.25
2022-12-17T19:34:19.570Z,41.33
2022-12-17T19:36:48.719Z,72.95
2022-12-17T19:39:20.203Z,29.85
2022-12-17T19:41:51.324Z,39.90
2022-12-17T19:44:20.551Z,33.85
2022-12-17T19:46:49.123Z,29.15
2022-12-17T19:49:18.211Z,21.33
2022-12-17T19:51:46.376Z,45.63
2022-12-17T19:54:15.518Z,36.70
2022-12-17T19:56:45.987Z,34.83
2022-12-17T19:59:14.808Z,32.67
2022-12-17T20:01:44.950Z,24.25
2022-12-17T20:04:13.870Z,26.23
2022-12-17T20:06:43.276Z,26.80
2022-12-17T20:09:11.697Z,24.42
2022-12-17T20:11:39.952Z,25.42
2022-12-17T20:14:13.212Z,31.05
2022-12-17T20:16:43.518Z,29.40
2022-12-17T20:19:13.499Z,26.15
2022-12-17T20:21:41.552Z,27.20
2022-12-17T20:24:11.330Z,27.65
2022-12-17T20:26:39.317Z,26.42
2022-12-17T20:29:09.707Z,23.55
2022-12-17T20:31:39.107Z,22.65
2022-12-17T20:37:30.805Z,24.50
2022-12-17T20:39:59.056Z,25.30
2022-12-17T20:42:27.597Z,31.65
2022-12-17T20:44:57.476Z,28.83
2022-12-17T20:47:25.695Z,34.70
2022-12-17T20:49:54.036Z,43.25
2022-12-17T20:52:22.274Z,54.45
2022-12-17T20:54:50.353Z,60.05
2022-12-17T20:57:18.561Z,60.38
2022-12-17T20:59:46.643Z,44.58
2022-12-17T21:02:16.902Z,49.28
2022-12-17T21:08:50.531Z,42.08
2022-12-17T21:11:22.249Z,44.42
2022-12-17T21:13:50.179Z,58.47
2022-12-17T21:16:21.260Z,62.38
2022-12-17T21:19:00.246Z,46.67
2022-12-17T21:21:30.147Z,43.80
2022-12-17T21:26:27.521Z,41.35
2022-12-17T21:29:00.741Z,41.75
2022-12-17T21:31:31.466Z,38.35
2022-12-17T21:34:02.993Z,59.08
2022-12-17T21:36:33.033Z,51.47
2022-12-17T21:39:02.206Z,48.58
2022-12-17T21:41:39.319Z,49.95
2022-12-17T21:44:14.139Z,40.05
2022-12-17T21:46:48.523Z,94.60
2022-12-17T21:49:19.875Z,101.22
2022-12-17T21:51:48.136Z,88.10
2022-12-17T21:54:19.836Z,78.28
2022-12-17T21:56:48.890Z,72.78
2022-12-17T21:59:17.452Z,68.78
2022-12-17T22:01:46.162Z,43.22
2022-12-17T22:04:14.523Z,37.83
2022-12-17T22:06:49.697Z,22.02
2022-12-17T22:09:46.624Z,16.60
2022-12-17T22:12:33.368Z,18.98
2022-12-17T22:15:01.323Z,34.47
2022-12-17T22:17:29.769Z,36.88
2022-12-17T22:19:57.854Z,28.73
2022-12-17T22:22:27.211Z,36.03
2022-12-17T22:25:00.886Z,30.77
2022-12-17T22:27:32.695Z,24.42
2022-12-17T22:30:17.995Z,24.58
2022-12-17T22:33:14.273Z,26.77
2022-12-17T22:37:02.982Z,32.08
2022-12-17T22:42:49.017Z,35.35
2022-12-17T22:44:15.000Z,38.55
2022-12-17T22:44:51.817Z,47.42
2022-12-17T22:47:21.033Z,38.33
2022-12-17T22:49:48.923Z,39.90
2022-12-17T22:52:17.508Z,38.10
2022-12-17T22:54:49.236Z,44.33
2022-12-17T22:57:36.812Z,48.85
2022-12-17T23:00:11.115Z,39.75
2022-12-17T23:02:39.302Z,44.10
2022-12-17T23:05:07.998Z,44.00
2022-12-17T23:07:36.023Z,40.75
2022-12-17T23:10:06.174Z,42.65
2022-12-17T23:12:52.463Z,43.15
2022-12-17T23:15:23.095Z,36.33
2022-12-17T23:17:51.596Z,32.40
2022-12-17T23:20:20.037Z,40.38
2022-12-17T23:22:48.020Z,33.13
2022-12-17T23:25:17.643Z,32.97
2022-12-17T23:27:46.747Z,32.17
2022-12-17T23:30:17.027Z,30.17
2022-12-17T23:32:46.369Z,31.58
2022-12-17T23:35:15.549Z,59.55
2022-12-17T23:37:43.796Z,63.63
2022-12-17T23:40:13.221Z,45.35
2022-12-17T23:42:42.770Z,50.30
2022-12-17T23:45:11.980Z,42.45
2022-12-17T23:47:42.072Z,46.00
2022-12-17T23:50:11.768Z,54.25
2022-12-17T23:52:40.393Z,51.15
2022-12-17T23:55:09.224Z,76.97
2022-12-17T23:57:37.118Z,76.72
